Time;durP1;ratioP1;P1;durP2;ratioP2;P2;SDS_P1;SDS_P2;PMS_P1;PMS_P2;Temp;Humidity;BMP_temperature;BMP_pressure;BME280_temperature;BME280_humidity;BME280_pressure;Samples;Min_cycle;Max_cycle;Signal;HPM_P1;HPM_P2
2021/12/10 00:00:29;;;;;;;38.42;22.83;;;5.30;99.90;;;;;;5115839;28;20031;-68
2021/12/10 00:02:55;;;;;;;42.65;24.45;;;5.30;99.90;;;;;;5114115;28;20409;-68
2021/12/10 00:05:27;;;;;;;38.10;24.58;;;5.30;99.90;;;;;;5115791;28;20046;-68
2021/12/10 00:07:55;;;;;;;41.05;24.75;;;5.30;99.90;;;;;;5114067;28;20515;-68
2021/12/10 00:10:25;;;;;;;41.00;23.80;;;5.30;99.90;;;;;;5113156;28;20132;-68
2021/12/10 00:12:51;;;;;;;42.72;24.55;;;5.30;99.90;;;;;;5115751;28;20050;-68
2021/12/10 00:15:24;;;;;;;42.88;25.15;;;5.40;99.90;;;;;;5115548;28;20079;-68
2021/12/10 00:17:51;;;;;;;40.95;24.35;;;5.30;99.90;;;;;;5115162;28;20392;-68
2021/12/10 00:20:18;;;;;;;39.60;22.92;;;5.30;99.90;;;;;;5115517;28;20043;-68
2021/12/10 00:22:55;;;;;;;41.47;21.98;;;5.30;99.90;;;;;;5115291;28;20036;-68
2021/12/10 00:25:25;;;;;;;44.67;24.20;;;5.30;99.90;;;;;;5115339;28;20050;-68
2021/12/10 00:27:53;;;;;;;43.85;23.50;;;5.30;99.90;;;;;;5115437;28;20071;-68
2021/12/10 00:30:28;;;;;;;40.00;23.58;;;5.40;99.90;;;;;;5115081;28;20035;-68
2021/12/10 00:33:14;;;;;;;38.60;22.05;;;5.40;99.90;;;;;;5115396;28;20039;-68
2021/12/10 00:35:42;;;;;;;37.88;22.88;;;5.40;99.90;;;;;;5114582;28;20093;-68
2021/12/10 00:38:08;;;;;;;37.97;21.80;;;5.40;99.90;;;;;;5113623;28;20039;-68
2021/12/10 00:40:34;;;;;;;34.10;20.73;;;5.40;99.90;;;;;;5115280;28;20048;-68
2021/12/10 00:43:00;;;;;;;42.63;21.38;;;5.40;99.90;;;;;;5115112;28;20092;-68
2021/12/10 00:45:26;;;;;;;39.83;21.50;;;5.40;99.90;;;;;;5114740;28;20043;-68
2021/12/10 00:47:52;;;;;;;37.40;21.40;;;5.40;99.90;;;;;;5114547;28;20042;-68
2021/12/10 00:50:22;;;;;;;38.30;20.73;;;5.40;99.90;;;;;;5114930;28;20036;-68
2021/12/10 00:52:50;;;;;;;36.03;21.08;;;5.40;99.90;;;;;;5113483;28;20122;-68
2021/12/10 00:55:16;;;;;;;39.22;20.65;;;5.40;99.90;;;;;;5113250;28;20492;-68
2021/12/10 00:57:41;;;;;;;33.38;21.55;;;5.40;99.90;;;;;;5113040;28;20114;-68
2021/12/10 01:00:17;;;;;;;42.38;23.88;;;5.30;99.90;;;;;;5114410;28;20161;-68
2021/12/10 01:02:42;;;;;;;38.83;21.65;;;5.30;99.90;;;;;;5113206;28;20043;-68
2021/12/10 01:05:11;;;;;;;42.45;22.73;;;5.30;99.90;;;;;;5114766;28;20051;-68
2021/12/10 01:07:38;;;;;;;37.30;23.63;;;5.30;99.90;;;;;;5114199;28;20119;-68
2021/12/10 01:10:17;;;;;;;39.22;21.40;;;5.30;99.90;;;;;;5113550;28;20530;-68
2021/12/10 01:12:48;;;;;;;40.60;21.02;;;5.30;99.90;;;;;;5114280;28;20044;-68
2021/12/10 01:15:44;;;;;;;39.10;21.08;;;5.40;99.90;;;;;;5114603;28;20176;-68
2021/12/10 01:23:58;;;;;;;38.75;21.55;;;5.30;99.90;;;;;;5114203;28;20079;-68
2021/12/10 01:29:09;;;;;;;41.67;21.10;;;5.30;99.90;;;;;;5114332;28;20154;-68
2021/12/10 01:31:35;;;;;;;40.55;20.65;;;5.30;99.90;;;;;;5114134;28;20119;-68
2021/12/10 01:34:02;;;;;;;39.10;21.00;;;5.30;99.90;;;;;;5113961;28;20043;-68
2021/12/10 01:36:27;;;;;;;33.65;21.10;;;5.30;99.90;;;;;;5114055;28;20043;-68
2021/12/10 01:38:54;;;;;;;42.83;21.55;;;5.30;99.90;;;;;;5114127;28;20397;-68
2021/12/10 01:41:24;;;;;;;39.15;22.88;;;5.30;99.90;;;;;;5113877;28;20542;-68
2021/12/10 01:43:52;;;;;;;37.03;22.27;;;5.30;99.90;;;;;;5113780;28;20089;-68
2021/12/10 01:46:27;;;;;;;43.25;21.90;;;5.30;99.90;;;;;;5095881;28;20401;-68
2021/12/10 01:48:56;;;;;;;37.70;21.08;;;5.30;99.90;;;;;;5113930;28;20031;-68
2021/12/10 01:51:27;;;;;;;42.45;21.60;;;5.30;99.90;;;;;;5113689;28;20505;-68
2021/12/10 01:53:56;;;;;;;40.67;21.55;;;5.30;99.90;;;;;;5114026;27;20168;-68
2021/12/10 01:56:26;;;;;;;35.83;21.83;;;5.30;99.90;;;;;;5113647;28;20518;-68
2021/12/10 01:58:52;;;;;;;35.60;20.70;;;5.30;99.90;;;;;;5114003;28;20358;-68
2021/12/10 02:01:29;;;;;;;39.40;22.15;;;5.20;99.90;;;;;;5113850;28;20035;-68
2021/12/10 02:03:55;;;;;;;36.63;21.63;;;5.20;99.90;;;;;;5112622;28;20062;-68
2021/12/10 02:06:22;;;;;;;42.20;21.05;;;5.20;99.90;;;;;;5112144;28;20031;-68
2021/12/10 02:08:49;;;;;;;44.20;22.52;;;5.10;99.90;;;;;;5113674;28;20119;-68
2021/12/10 02:11:16;;;;;;;36.55;19.83;;;5.20;99.90;;;;;;5113869;28;20039;-68
2021/12/10 02:13:42;;;;;;;46.30;22.33;;;5.20;99.90;;;;;;5113723;28;20051;-68
2021/12/10 02:16:08;;;;;;;33.92;20.02;;;5.20;99.90;;;;;;5113428;28;20492;-68
2021/12/10 02:18:34;;;;;;;32.85;20.20;;;5.20;99.90;;;;;;5113724;28;20056;-68
2021/12/10 02:21:03;;;;;;;38.78;20.58;;;5.20;99.90;;;;;;5113725;28;20485;-68
2021/12/10 02:23:41;;;;;;;43.13;21.23;;;5.10;99.90;;;;;;5112339;28;20052;-68
2021/12/10 02:26:11;;;;;;;37.90;21.33;;;5.20;99.90;;;;;;5111869;28;20123;-68
2021/12/10 02:28:37;;;;;;;33.20;20.42;;;5.20;99.90;;;;;;5112419;28;20225;-68
2021/12/10 02:31:05;;;;;;;35.42;20.58;;;5.20;99.90;;;;;;5113575;28;20040;-68
2021/12/10 02:33:31;;;;;;;36.53;22.40;;;5.10;99.90;;;;;;5113913;28;20504;-68
2021/12/10 02:35:57;;;;;;;32.95;20.83;;;5.20;99.90;;;;;;5117050;28;20048;-68
2021/12/10 02:38:24;;;;;;;36.30;21.58;;;5.20;99.90;;;;;;5117377;28;20059;-68
2021/12/10 02:40:51;;;;;;;34.65;19.67;;;5.20;99.90;;;;;;5117396;28;20124;-68
2021/12/10 02:43:19;;;;;;;35.72;19.25;;;5.20;99.90;;;;;;5117392;28;20097;-68
2021/12/10 02:45:51;;;;;;;36.70;20.17;;;5.20;99.90;;;;;;5115888;28;20126;-68
2021/12/10 02:48:17;;;;;;;34.90;20.17;;;5.20;99.90;;;;;;5117138;28;20043;-68
2021/12/10 02:50:44;;;;;;;32.08;19.90;;;5.20;99.90;;;;;;5116994;28;20114;-68
2021/12/10 02:53:13;;;;;;;32.80;19.35;;;5.20;99.90;;;;;;5115702;28;20429;-68
2021/12/10 02:55:39;;;;;;;34.60;19.98;;;5.20;99.90;;;;;;5116649;28;20123;-68
2021/12/10 02:58:10;;;;;;;31.50;20.38;;;5.20;99.90;;;;;;5117123;28;20116;-68
2021/12/10 03:00:46;;;;;;;31.02;19.58;;;5.20;99.90;;;;;;5116864;27;20046;-68
2021/12/10 03:03:12;;;;;;;31.58;18.10;;;5.20;99.90;;;;;;5117406;28;20032;-68
2021/12/10 03:05:38;;;;;;;31.25;18.45;;;5.20;99.90;;;;;;5116589;28;20036;-68
2021/12/10 03:08:05;;;;;;;29.10;16.63;;;5.20;99.90;;;;;;5116799;28;20035;-68
2021/12/10 03:10:32;;;;;;;28.05;16.58;;;5.20;99.90;;;;;;5115340;28;20508;-68
2021/12/10 03:12:57;;;;;;;26.70;16.40;;;5.20;99.90;;;;;;5117336;28;20039;-68
2021/12/10 03:15:26;;;;;;;26.83;15.32;;;5.20;99.90;;;;;;5116676;28;20040;-68
2021/12/10 03:17:53;;;;;;;25.90;14.10;;;5.10;99.90;;;;;;5116519;28;20039;-68
2021/12/10 03:20:21;;;;;;;26.60;15.95;;;5.20;99.90;;;;;;5115244;28;20111;-68
2021/12/10 03:22:48;;;;;;;28.92;14.70;;;5.20;99.90;;;;;;5116621;28;20046;-68
2021/12/10 03:25:15;;;;;;;27.45;14.98;;;5.10;99.90;;;;;;5116613;28;20067;-68
2021/12/10 03:27:42;;;;;;;31.10;17.70;;;5.10;99.90;;;;;;5116063;28;20169;-68
2021/12/10 03:30:10;;;;;;;28.85;16.27;;;5.10;99.90;;;;;;5116625;28;20096;-68
2021/12/10 03:32:38;;;;;;;29.38;14.52;;;5.10;99.90;;;;;;5116474;28;20036;-68
2021/12/10 03:35:13;;;;;;;28.50;15.30;;;5.10;99.90;;;;;;5116428;28;20458;-68
2021/12/10 03:37:41;;;;;;;25.10;14.60;;;5.10;99.90;;;;;;5115926;28;20032;-68
2021/12/10 03:40:09;;;;;;;25.95;14.95;;;5.10;99.90;;;;;;5114975;28;20053;-68
2021/12/10 03:42:35;;;;;;;25.90;14.95;;;5.00;99.90;;;;;;5116104;28;20069;-68
2021/12/10 03:45:01;;;;;;;27.17;14.00;;;5.10;99.90;;;;;;5114144;28;20397;-68
2021/12/10 03:47:26;;;;;;;29.80;14.75;;;5.10;99.90;;;;;;5113929;28;20043;-68
2021/12/10 03:49:52;;;;;;;26.55;14.13;;;5.10;99.90;;;;;;5116226;28;20035;-68
2021/12/10 03:52:18;;;;;;;34.70;14.18;;;5.10;99.90;;;;;;5116197;28;20456;-68
2021/12/10 03:54:44;;;;;;;24.60;14.45;;;5.10;99.90;;;;;;5116366;28;20044;-68
2021/12/10 03:57:10;;;;;;;28.05;15.68;;;5.10;99.90;;;;;;5115580;28;20036;-68
2021/12/10 03:59:37;;;;;;;24.40;13.00;;;5.10;99.90;;;;;;5116311;28;20036;-68
2021/12/10 04:02:05;;;;;;;22.70;14.07;;;5.10;99.90;;;;;;5115706;28;20036;-68
2021/12/10 04:04:35;;;;;;;29.67;14.57;;;5.10;99.90;;;;;;5114465;28;20050;-68
2021/12/10 04:07:05;;;;;;;28.02;16.25;;;5.10;99.90;;;;;;5115311;28;20057;-68
2021/12/10 04:09:31;;;;;;;25.20;15.23;;;5.10;99.90;;;;;;5115602;28;20042;-68
2021/12/10 04:11:57;;;;;;;27.05;15.55;;;5.10;99.90;;;;;;5115479;28;20114;-68
2021/12/10 04:14:23;;;;;;;28.02;15.60;;;5.10;99.90;;;;;;5115222;28;20039;-68
2021/12/10 04:16:55;;;;;;;27.73;16.55;;;5.10;99.90;;;;;;5115491;28;20031;-68
2021/12/10 04:19:21;;;;;;;25.48;16.83;;;5.10;99.90;;;;;;5115911;28;20032;-68
2021/12/10 04:21:48;;;;;;;36.38;19.20;;;5.10;99.90;;;;;;5115285;28;20044;-68
2021/12/10 04:24:17;;;;;;;34.10;20.08;;;5.10;99.90;;;;;;5115354;28;20074;-68
2021/12/10 04:26:44;;;;;;;30.50;21.63;;;5.10;99.90;;;;;;5115012;28;20061;-68
2021/12/10 04:29:10;;;;;;;40.30;22.38;;;5.10;99.90;;;;;;5113902;28;20088;-68
2021/12/10 04:31:36;;;;;;;33.25;20.65;;;5.10;99.90;;;;;;5114002;28;20039;-68
2021/12/10 04:34:03;;;;;;;34.88;20.98;;;5.10;99.90;;;;;;5115443;28;20046;-68
2021/12/10 04:36:29;;;;;;;36.42;21.40;;;5.10;99.90;;;;;;5114612;28;20472;-68
2021/12/10 04:38:55;;;;;;;33.92;21.30;;;5.10;99.90;;;;;;5115220;28;20071;-68
2021/12/10 04:41:21;;;;;;;37.50;23.30;;;5.10;99.90;;;;;;5114021;28;20038;-68
2021/12/10 04:43:47;;;;;;;40.75;22.02;;;5.00;99.90;;;;;;5113693;28;20427;-68
2021/12/10 04:46:15;;;;;;;33.45;21.63;;;5.00;99.90;;;;;;5096348;28;20097;-68
2021/12/10 04:48:48;;;;;;;30.83;19.90;;;5.00;99.90;;;;;;5113471;28;20044;-68
2021/12/10 04:51:15;;;;;;;37.33;22.42;;;4.90;99.90;;;;;;5114682;28;20075;-68
2021/12/10 04:53:41;;;;;;;35.08;22.15;;;4.90;99.90;;;;;;5114677;28;20070;-68
2021/12/10 04:56:06;;;;;;;33.30;21.10;;;4.80;99.90;;;;;;5114193;28;20050;-68
2021/12/10 04:58:32;;;;;;;32.33;20.10;;;4.80;99.90;;;;;;5113050;28;20112;-68
2021/12/10 05:00:58;;;;;;;33.25;20.63;;;4.80;99.90;;;;;;5114617;28;20031;-68
2021/12/10 05:03:23;;;;;;;31.55;20.60;;;4.70;99.90;;;;;;5114540;28;20035;-68
2021/12/10 05:05:49;;;;;;;33.60;20.42;;;4.60;99.90;;;;;;5113065;28;20039;-68
2021/12/10 05:08:15;;;;;;;30.95;20.63;;;4.60;99.90;;;;;;5114591;28;20043;-68
2021/12/10 05:10:41;;;;;;;32.55;22.35;;;4.60;99.90;;;;;;5113148;28;20130;-68
2021/12/10 05:13:07;;;;;;;32.78;20.52;;;4.60;99.90;;;;;;5114410;28;20039;-68
2021/12/10 05:15:37;;;;;;;28.63;20.02;;;4.50;99.90;;;;;;5113975;28;20434;-68
2021/12/10 05:18:04;;;;;;;31.25;19.80;;;4.50;99.90;;;;;;5114452;28;20039;-68
2021/12/10 05:20:37;;;;;;;30.70;19.42;;;4.40;99.90;;;;;;5113065;28;20036;-68
2021/12/10 05:23:03;;;;;;;35.90;20.17;;;4.40;99.90;;;;;;5114701;28;20040;-68
2021/12/10 05:25:30;;;;;;;33.60;20.48;;;4.30;99.90;;;;;;5113877;28;20515;-68
2021/12/10 05:27:57;;;;;;;32.17;21.00;;;4.30;99.90;;;;;;5114243;27;20114;-68
2021/12/10 05:30:27;;;;;;;34.10;21.10;;;4.30;99.90;;;;;;5114002;28;20032;-68
2021/12/10 05:32:53;;;;;;;40.05;21.38;;;4.30;99.90;;;;;;5114065;28;20078;-68
2021/12/10 05:35:19;;;;;;;33.15;20.70;;;4.20;99.90;;;;;;5113740;28;20083;-68
2021/12/10 05:37:45;;;;;;;33.78;20.67;;;4.20;99.90;;;;;;5113889;28;20115;-68
2021/12/10 05:40:13;;;;;;;35.40;21.85;;;4.20;99.90;;;;;;5114088;28;20042;-68
2021/12/10 05:42:43;;;;;;;35.95;21.20;;;4.20;99.90;;;;;;5112489;28;20040;-68
2021/12/10 05:45:10;;;;;;;34.17;21.27;;;4.10;99.90;;;;;;5112686;28;20555;-68
2021/12/10 05:47:36;;;;;;;32.90;22.05;;;4.20;99.90;;;;;;5113383;28;20497;-68
2021/12/10 05:50:04;;;;;;;32.85;21.83;;;4.20;99.90;;;;;;5113911;28;20043;-68
2021/12/10 05:52:30;;;;;;;29.38;20.77;;;4.10;99.90;;;;;;5113892;28;20047;-68
2021/12/10 05:54:55;;;;;;;36.00;20.40;;;4.10;99.90;;;;;;5114007;28;20118;-68
2021/12/10 05:57:21;;;;;;;35.83;21.67;;;4.10;99.90;;;;;;5112197;28;20516;-68
2021/12/10 05:59:46;;;;;;;33.97;22.67;;;4.10;99.90;;;;;;5112553;28;20043;-68
2021/12/10 06:02:12;;;;;;;34.88;21.20;;;4.10;99.90;;;;;;5113522;28;20040;-68
2021/12/10 06:04:38;;;;;;;33.72;21.02;;;4.20;99.90;;;;;;5113874;28;20035;-68
2021/12/10 06:07:05;;;;;;;38.67;21.05;;;4.20;99.90;;;;;;5112084;28;20075;-68
2021/12/10 06:09:32;;;;;;;32.72;21.05;;;4.10;99.90;;;;;;5115852;28;20114;-68
2021/12/10 06:11:59;;;;;;;30.63;21.20;;;4.20;99.90;;;;;;5118193;28;20032;-68
2021/12/10 06:14:24;;;;;;;29.33;18.92;;;4.20;99.90;;;;;;5117923;28;20040;-68
2021/12/10 06:16:52;;;;;;;32.13;20.08;;;4.30;99.90;;;;;;5117390;28;20036;-68
2021/12/10 06:19:18;;;;;;;27.85;18.95;;;4.30;99.90;;;;;;5117834;28;20036;-68
2021/12/10 06:21:44;;;;;;;32.15;20.52;;;4.20;99.90;;;;;;5116500;28;20065;-68
2021/12/10 06:24:10;;;;;;;31.98;21.92;;;4.30;99.90;;;;;;5117532;28;20561;-68
2021/12/10 06:26:36;;;;;;;31.48;20.42;;;4.20;99.90;;;;;;5115717;28;20040;-68
2021/12/10 06:29:02;;;;;;;30.77;19.33;;;4.20;99.90;;;;;;5117465;28;20036;-68
2021/12/10 06:31:29;;;;;;;30.77;19.80;;;4.20;99.90;;;;;;5116171;28;20044;-68
2021/12/10 06:33:56;;;;;;;32.45;20.65;;;4.10;99.90;;;;;;5116023;28;20097;-68
2021/12/10 06:36:23;;;;;;;32.10;20.45;;;4.20;99.90;;;;;;5117176;28;20089;-68
2021/12/10 06:38:49;;;;;;;31.00;19.58;;;4.10;99.90;;;;;;5117440;28;20077;-68
2021/12/10 06:41:15;;;;;;;29.15;18.88;;;4.00;99.90;;;;;;5117254;28;20035;-69
2021/12/10 06:43:42;;;;;;;25.38;17.58;;;4.00;99.90;;;;;;5116656;28;20036;-68
2021/12/10 06:46:08;;;;;;;27.67;18.63;;;4.00;99.90;;;;;;5115473;28;20046;-68
2021/12/10 06:48:35;;;;;;;28.95;17.50;;;3.90;99.90;;;;;;5117217;28;20032;-68
2021/12/10 06:51:09;;;;;;;27.63;16.02;;;3.90;99.90;;;;;;5116035;28;20123;-68
2021/12/10 06:53:38;;;;;;;24.98;16.13;;;3.90;99.90;;;;;;5117457;28;20075;-68
2021/12/10 06:56:04;;;;;;;24.13;15.73;;;3.80;99.90;;;;;;5115679;28;20104;-67
2021/12/10 06:58:33;;;;;;;24.50;16.08;;;3.80;99.90;;;;;;5116744;28;20067;-66
2021/12/10 07:01:24;;;;;;;21.70;14.48;;;3.80;99.90;;;;;;5117055;28;20031;-67
2021/12/10 07:03:53;;;;;;;22.10;14.38;;;3.70;99.90;;;;;;5111874;28;20101;-68
2021/12/10 07:06:19;;;;;;;23.05;15.10;;;3.70;99.90;;;;;;5116541;28;20035;-67
2021/12/10 07:08:47;;;;;;;23.02;14.80;;;3.70;99.90;;;;;;5116928;28;20538;-67
2021/12/10 07:11:16;;;;;;;24.05;14.43;;;3.60;99.90;;;;;;5116652;28;20397;-68
2021/12/10 07:13:46;;;;;;;19.50;13.27;;;3.60;99.90;;;;;;5115529;28;20393;-69
2021/12/10 07:16:12;;;;;;;25.45;13.73;;;3.60;99.90;;;;;;5116463;28;20040;-68
2021/12/10 07:18:38;;;;;;;23.75;13.38;;;3.60;99.90;;;;;;5116579;28;20485;-67
2021/12/10 07:21:05;;;;;;;19.77;13.23;;;3.50;99.90;;;;;;5116364;28;20042;-69
2021/12/10 07:23:31;;;;;;;18.33;12.35;;;3.60;99.90;;;;;;5116729;28;20028;-67
2021/12/10 07:25:57;;;;;;;19.85;12.52;;;3.50;99.90;;;;;;5116627;28;20534;-69
2021/12/10 07:28:22;;;;;;;22.38;12.27;;;3.50;99.90;;;;;;5116370;28;20040;-69
2021/12/10 07:30:50;;;;;;;18.77;11.82;;;3.50;99.90;;;;;;5116660;28;20409;-69
2021/12/10 07:33:17;;;;;;;21.30;11.00;;;3.50;99.90;;;;;;5116889;27;20118;-69
2021/12/10 07:35:44;;;;;;;19.90;12.60;;;3.60;99.90;;;;;;5116060;27;20031;-69
2021/12/10 07:38:10;;;;;;;22.15;13.30;;;3.60;99.90;;;;;;5115242;28;20127;-68
2021/12/10 07:40:37;;;;;;;16.58;11.55;;;3.60;99.90;;;;;;5116222;28;20115;-67
2021/12/10 07:43:05;;;;;;;20.25;12.15;;;3.70;99.90;;;;;;5116081;28;20040;-69
2021/12/10 07:45:31;;;;;;;19.15;11.45;;;3.60;99.90;;;;;;5097451;28;20050;-68
2021/12/10 07:48:00;;;;;;;21.67;13.85;;;3.70;99.90;;;;;;5115932;28;20055;-72
2021/12/10 07:50:32;;;;;;;20.10;11.25;;;3.60;99.90;;;;;;5115988;28;20049;-73
2021/12/10 07:52:58;;;;;;;19.50;12.52;;;3.50;99.90;;;;;;5115886;27;20056;-73
2021/12/10 07:55:30;;;;;;;18.85;10.90;;;3.40;99.90;;;;;;5114604;28;20048;-72
2021/12/10 07:57:56;;;;;;;19.42;11.60;;;3.40;99.90;;;;;;5115198;28;20058;-72
2021/12/10 08:00:25;;;;;;;16.30;11.00;;;3.50;99.90;;;;;;5115555;28;20118;-73
2021/12/10 08:02:51;;;;;;;19.63;11.25;;;3.40;99.90;;;;;;5116426;28;20122;-73
2021/12/10 08:05:18;;;;;;;17.88;10.68;;;3.40;99.90;;;;;;5116119;28;20075;-73
2021/12/10 08:07:45;;;;;;;16.55;10.82;;;3.30;99.90;;;;;;5115592;28;20035;-73
2021/12/10 08:10:12;;;;;;;19.80;11.15;;;3.40;99.90;;;;;;5115870;28;20099;-72
2021/12/10 08:12:37;;;;;;;18.52;11.05;;;3.40;99.90;;;;;;5115464;28;20044;-73
2021/12/10 08:15:05;;;;;;;16.52;11.50;;;3.40;99.90;;;;;;5115984;28;20092;-73
2021/12/10 08:17:31;;;;;;;17.73;10.93;;;3.40;99.90;;;;;;5115300;28;20055;-72
2021/12/10 08:19:58;;;;;;;18.85;11.10;;;3.30;99.90;;;;;;5115255;28;20058;-73
2021/12/10 08:22:23;;;;;;;16.80;10.73;;;3.40;99.90;;;;;;5115328;28;20106;-72
2021/12/10 08:24:49;;;;;;;17.52;8.98;;;3.40;99.90;;;;;;5115357;28;20510;-73
2021/12/10 08:27:15;;;;;;;19.05;12.07;;;3.30;99.90;;;;;;5114675;28;20028;-72
2021/12/10 08:29:43;;;;;;;18.83;10.02;;;3.30;99.90;;;;;;5114181;28;20122;-72
2021/12/10 08:32:12;;;;;;;20.80;11.88;;;3.30;99.90;;;;;;5114975;28;20473;-71
2021/12/10 08:34:38;;;;;;;15.85;10.20;;;3.20;99.90;;;;;;5114166;28;20039;-71
2021/12/10 08:37:05;;;;;;;16.23;9.93;;;3.20;99.90;;;;;;5114612;28;20047;-73
2021/12/10 08:39:31;;;;;;;14.52;9.20;;;3.20;99.90;;;;;;5115030;28;20519;-72
2021/12/10 08:41:58;;;;;;;13.57;9.20;;;3.20;99.90;;;;;;5115038;28;20035;-72
2021/12/10 08:44:24;;;;;;;16.15;8.98;;;3.30;99.90;;;;;;5115388;28;20050;-72
2021/12/10 08:46:50;;;;;;;18.05;9.68;;;3.30;99.90;;;;;;5114520;27;20058;-73
2021/12/10 08:49:16;;;;;;;16.40;9.93;;;3.40;99.90;;;;;;5114732;28;20501;-72
2021/12/10 08:51:45;;;;;;;15.02;9.68;;;3.40;99.90;;;;;;5115292;28;20478;-73
2021/12/10 08:54:12;;;;;;;18.17;9.80;;;3.40;99.90;;;;;;5114924;28;20039;-72
2021/12/10 08:56:39;;;;;;;15.38;9.20;;;3.50;99.90;;;;;;5114455;28;20466;-72
2021/12/10 08:59:07;;;;;;;13.68;9.50;;;3.60;99.90;;;;;;5115149;27;20043;-72
2021/12/10 09:01:36;;;;;;;15.68;9.68;;;3.60;99.90;;;;;;5114625;28;20047;-72
2021/12/10 09:04:04;;;;;;;15.55;9.48;;;3.60;99.90;;;;;;5113204;28;20040;-72
2021/12/10 09:06:33;;;;;;;21.45;10.05;;;3.70;99.90;;;;;;5112864;28;20043;-72
2021/12/10 09:09:00;;;;;;;18.92;9.45;;;3.70;99.90;;;;;;5114390;28;20040;-72
2021/12/10 09:11:27;;;;;;;14.02;9.82;;;3.70;99.90;;;;;;5114342;27;20409;-72
2021/12/10 09:13:53;;;;;;;14.00;8.48;;;3.70;99.90;;;;;;5114287;28;20076;-73
2021/12/10 09:16:25;;;;;;;16.08;8.93;;;3.70;99.90;;;;;;5114000;28;20035;-71
2021/12/10 09:18:54;;;;;;;13.70;9.02;;;3.70;99.90;;;;;;5112898;28;20032;-71
2021/12/10 09:21:20;;;;;;;16.23;9.55;;;3.70;99.90;;;;;;5114393;28;20035;-70
2021/12/10 09:23:47;;;;;;;17.45;10.00;;;3.70;99.90;;;;;;5113978;28;20477;-71
2021/12/10 09:26:16;;;;;;;14.48;9.65;;;3.80;99.90;;;;;;5113732;28;20489;-70
2021/12/10 09:28:45;;;;;;;18.95;10.00;;;3.80;99.90;;;;;;5113973;28;20111;-72
2021/12/10 09:31:13;;;;;;;15.95;9.80;;;3.80;99.90;;;;;;5114117;28;20097;-70
2021/12/10 09:33:39;;;;;;;17.88;9.23;;;3.80;99.90;;;;;;5112722;28;20139;-71
2021/12/10 09:36:05;;;;;;;15.38;9.55;;;3.80;99.90;;;;;;5113698;28;20046;-70
2021/12/10 09:38:31;;;;;;;17.23;11.07;;;3.90;99.90;;;;;;5112885;28;20047;-70
2021/12/10 09:41:02;;;;;;;18.05;9.65;;;3.90;99.90;;;;;;5113883;28;20401;-70
2021/12/10 09:43:29;;;;;;;18.05;10.15;;;3.90;99.90;;;;;;5113903;28;20074;-70
2021/12/10 09:45:55;;;;;;;16.08;9.65;;;3.90;99.90;;;;;;5111962;28;20039;-71
2021/12/10 09:48:23;;;;;;;15.30;9.88;;;3.90;99.90;;;;;;5113646;28;20127;-71
2021/12/10 09:50:55;;;;;;;15.95;9.88;;;3.90;99.90;;;;;;5113785;28;20481;-71
2021/12/10 09:53:22;;;;;;;16.33;9.60;;;3.90;99.90;;;;;;5113062;28;20040;-71
2021/12/10 09:55:49;;;;;;;15.00;9.55;;;4.00;99.90;;;;;;5113729;28;20101;-71
2021/12/10 09:58:16;;;;;;;19.08;9.80;;;4.00;99.90;;;;;;5113808;28;20031;-71
2021/12/10 10:00:51;;;;;;;15.18;9.32;;;4.00;99.90;;;;;;5113769;28;20040;-71
2021/12/10 10:03:20;;;;;;;14.32;8.52;;;4.10;99.90;;;;;;5113856;28;20046;-71
2021/12/10 10:05:46;;;;;;;14.32;9.10;;;4.10;99.90;;;;;;5113190;28;20081;-71
2021/12/10 10:08:25;;;;;;;15.18;8.48;;;4.10;99.90;;;;;;5113493;28;20040;-71
2021/12/10 10:10:55;;;;;;;15.68;8.95;;;4.20;99.90;;;;;;5113745;28;20035;-71
2021/12/10 10:13:27;;;;;;;15.25;9.10;;;4.20;99.90;;;;;;5112332;28;20495;-71
2021/12/10 10:15:56;;;;;;;11.98;8.73;;;4.20;99.90;;;;;;5113451;28;20508;-72
2021/12/10 10:18:22;;;;;;;12.23;8.13;;;4.20;99.90;;;;;;5113553;28;20473;-71
2021/12/10 10:20:54;;;;;;;13.90;9.00;;;4.30;99.90;;;;;;5112419;28;20046;-72
2021/12/10 10:23:21;;;;;;;14.93;8.73;;;4.30;99.90;;;;;;5113567;28;20496;-71
2021/12/10 10:25:50;;;;;;;11.20;7.80;;;4.30;99.90;;;;;;5113033;28;20050;-73
2021/12/10 10:28:16;;;;;;;11.27;6.97;;;4.30;99.90;;;;;;5113481;28;20118;-72
2021/12/10 10:31:01;;;;;;;9.45;6.85;;;4.30;99.90;;;;;;5113689;28;20148;-72
2021/12/10 10:33:34;;;;;;;12.65;8.15;;;4.40;99.90;;;;;;5112357;28;20039;-72
2021/12/10 10:36:05;;;;;;;12.65;7.45;;;4.40;99.90;;;;;;5112993;28;20047;-72
2021/12/10 10:38:31;;;;;;;10.52;7.45;;;4.40;99.90;;;;;;5113349;28;20039;-72
2021/12/10 10:41:06;;;;;;;11.65;7.35;;;4.40;99.90;;;;;;5112042;28;20040;-71
2021/12/10 10:43:32;;;;;;;14.27;7.40;;;4.50;99.90;;;;;;5113005;28;20039;-72
2021/12/10 10:45:59;;;;;;;12.38;6.78;;;4.50;99.90;;;;;;5112937;28;20047;-72
2021/12/10 10:48:26;;;;;;;14.52;7.80;;;4.50;99.90;;;;;;5113356;28;20405;-71
2021/12/10 10:50:54;;;;;;;12.05;6.95;;;4.60;99.90;;;;;;5113403;28;20035;-73
2021/12/10 10:53:23;;;;;;;11.68;6.68;;;4.60;99.90;;;;;;5113544;28;20040;-72
2021/12/10 10:55:58;;;;;;;10.68;7.00;;;4.60;99.90;;;;;;5115526;28;20074;-73
2021/12/10 10:58:30;;;;;;;17.20;8.20;;;4.70;99.90;;;;;;5117130;28;20083;-73
2021/12/10 11:01:21;;;;;;;11.82;6.38;;;4.70;99.90;;;;;;5117016;28;20067;-72
2021/12/10 11:03:58;;;;;;;9.27;6.20;;;4.80;99.90;;;;;;5117058;28;20493;-73
2021/12/10 11:06:28;;;;;;;11.30;6.15;;;4.80;99.90;;;;;;5116678;28;20050;-72
2021/12/10 11:09:06;;;;;;;10.40;6.07;;;4.80;99.90;;;;;;5115802;28;20079;-72
2021/12/10 11:11:35;;;;;;;11.65;6.18;;;4.90;99.90;;;;;;5115502;28;20047;-72
2021/12/10 11:14:04;;;;;;;9.98;5.38;;;5.00;99.90;;;;;;5116763;28;20036;-72
2021/12/10 11:16:32;;;;;;;9.60;6.43;;;4.90;99.90;;;;;;5116350;28;20404;-72
2021/12/10 11:19:05;;;;;;;11.65;6.38;;;4.90;99.90;;;;;;5115543;28;20051;-72
2021/12/10 11:21:51;;;;;;;9.43;5.55;;;4.90;99.90;;;;;;5116826;28;20081;-72
2021/12/10 11:24:24;;;;;;;8.75;6.00;;;5.00;99.90;;;;;;5116750;28;20038;-70
2021/12/10 11:26:57;;;;;;;9.18;5.80;;;5.00;99.90;;;;;;5116108;27;20036;-72
2021/12/10 11:29:51;;;;;;;10.05;5.85;;;5.00;99.90;;;;;;5117172;28;20053;-73
2021/12/10 11:32:25;;;;;;;10.90;5.65;;;5.10;99.90;;;;;;5116720;28;20035;-73
2021/12/10 11:34:56;;;;;;;11.45;5.40;;;5.10;99.90;;;;;;5116441;28;20123;-72
2021/12/10 11:37:43;;;;;;;9.85;5.10;;;5.10;99.90;;;;;;5115903;28;20043;-73
2021/12/10 11:40:34;;;;;;;12.55;5.38;;;5.10;99.90;;;;;;5116304;28;20123;-72
2021/12/10 11:46:15;;;;;;;7.55;5.15;;;5.20;99.90;;;;;;5114775;28;20081;-73
2021/12/10 11:48:45;;;;;;;7.10;5.00;;;5.20;99.90;;;;;;5116208;28;20614;-72
2021/12/10 11:51:20;;;;;;;8.65;5.90;;;5.30;99.90;;;;;;5116490;27;20039;-72
2021/12/10 11:54:00;;;;;;;10.52;5.32;;;5.30;99.90;;;;;;5116013;28;20112;-72
2021/12/10 11:56:33;;;;;;;10.43;5.07;;;5.30;99.90;;;;;;5115502;28;20035;-71
2021/12/10 11:59:11;;;;;;;;;;;5.30;99.90;;;;;;5116058;27;20045;-70
2021/12/10 12:01:57;;;;;;;8.45;5.03;;;5.50;99.90;;;;;;5114809;28;20071;-71
2021/12/10 12:04:27;;;;;;;6.28;4.07;;;5.60;99.90;;;;;;5115903;28;20063;-71
2021/12/10 12:07:14;;;;;;;8.90;4.82;;;5.70;99.90;;;;;;5114059;28;20046;-71
2021/12/10 12:09:42;;;;;;;7.68;4.20;;;5.80;99.90;;;;;;5115583;28;20542;-71
2021/12/10 12:12:14;;;;;;;7.45;4.30;;;5.80;99.90;;;;;;5115834;28;20047;-71
2021/12/10 12:14:49;;;;;;;8.98;4.43;;;5.80;99.90;;;;;;5115951;28;20096;-71
2021/12/10 12:17:30;;;;;;;6.82;4.38;;;5.80;99.90;;;;;;5115002;28;20047;-72
2021/12/10 12:19:56;;;;;;;7.65;4.32;;;5.80;99.90;;;;;;5115431;28;20032;-71
2021/12/10 12:25:25;;;;;;;5.25;3.72;;;5.90;99.90;;;;;;5115270;28;20043;-71
2021/12/10 12:28:14;;;;;;;11.98;5.20;;;5.90;99.90;;;;;;5113450;28;20489;-71
2021/12/10 12:30:59;;;;;;;8.82;4.55;;;5.90;99.90;;;;;;5115571;28;20039;-71
2021/12/10 12:33:27;;;;;;;6.80;4.07;;;5.90;99.90;;;;;;5114159;28;20039;-71
2021/12/10 12:35:54;;;;;;;7.72;5.20;;;5.90;99.90;;;;;;5113615;28;20047;-71
2021/12/10 12:38:29;;;;;;;8.05;3.90;;;6.00;99.90;;;;;;5115015;28;20101;-71
2021/12/10 12:41:28;;;;;;;6.45;4.30;;;6.00;99.90;;;;;;5115150;28;20040;-71
2021/12/10 12:44:10;;;;;;;10.55;4.80;;;5.90;99.90;;;;;;5092007;28;20051;-71
2021/12/10 12:46:56;;;;;;;9.75;4.85;;;6.00;99.90;;;;;;5114561;28;20035;-72
2021/12/10 12:49:22;;;;;;;12.45;5.85;;;6.00;99.90;;;;;;5114805;28;20058;-71
2021/12/10 12:52:03;;;;;;;10.10;6.00;;;5.80;99.90;;;;;;5114712;28;20506;-70
2021/12/10 12:54:29;;;;;;;7.70;5.13;;;5.80;99.90;;;;;;5113691;28;20458;-71
2021/12/10 12:56:55;;;;;;;11.18;5.68;;;5.80;99.90;;;;;;5114436;28;20054;-70
2021/12/10 12:59:21;;;;;;;9.35;5.93;;;5.80;99.90;;;;;;5113371;28;20038;-70
2021/12/10 13:01:57;;;;;;;8.45;5.90;;;5.80;99.90;;;;;;5113475;28;20474;-68
2021/12/10 13:04:33;;;;;;;11.32;5.75;;;5.90;99.90;;;;;;5115041;28;20036;-69